sensor_id;sensor_type;location;lat;lon;timestamp;P1;durP1;ratioP1;P2;durP2;ratioP2
79399;SDS011;68856;45.586;10.264;2023-11-21T00:02:09;26.20;;;18.45;;
79399;SDS011;68856;45.586;10.264;2023-11-21T00:04:36;25.48;;;18.27;;
79399;SDS011;68856;45.586;10.264;2023-11-21T00:07:02;28.63;;;18.60;;
79399;SDS011;68856;45.586;10.264;2023-11-21T00:09:31;25.85;;;18.38;;
79399;SDS011;68856;45.586;10.264;2023-11-21T00:11:57;28.23;;;19.23;;
79399;SDS011;68856;45.586;10.264;2023-11-21T00:14:27;28.50;;;20.63;;
79399;SDS011;68856;45.586;10.264;2023-11-21T00:16:53;31.15;;;22.38;;
79399;SDS011;68856;45.586;10.264;2023-11-21T00:19:19;35.53;;;22.05;;
79399;SDS011;68856;45.586;10.264;2023-11-21T00:21:46;30.55;;;22.67;;
79399;SDS011;68856;45.586;10.264;2023-11-21T00:24:12;31.48;;;23.23;;
79399;SDS011;68856;45.586;10.264;2023-11-21T00:26:41;30.70;;;23.60;;
79399;SDS011;68856;45.586;10.264;2023-11-21T00:29:08;33.00;;;24.75;;
79399;SDS011;68856;45.586;10.264;2023-11-21T00:31:34;33.63;;;23.83;;
79399;SDS011;68856;45.586;10.264;2023-11-21T00:34:03;29.98;;;23.70;;
79399;SDS011;68856;45.586;10.264;2023-11-21T00:36:32;36.50;;;23.88;;
79399;SDS011;68856;45.586;10.264;2023-11-21T00:38:59;31.27;;;23.25;;
79399;SDS011;68856;45.586;10.264;2023-11-21T00:41:25;31.88;;;24.70;;
79399;SDS011;68856;45.586;10.264;2023-11-21T00:43:53;32.15;;;24.00;;
79399;SDS011;68856;45.586;10.264;2023-11-21T00:46:20;32.45;;;25.52;;
79399;SDS011;68856;45.586;10.264;2023-11-21T00:48:46;33.80;;;25.75;;
79399;SDS011;68856;45.586;10.264;2023-11-21T00:51:12;34.42;;;25.50;;
79399;SDS011;68856;45.586;10.264;2023-11-21T00:53:39;35.50;;;25.65;;
79399;SDS011;68856;45.586;10.264;2023-11-21T00:56:05;36.85;;;25.92;;
79399;SDS011;68856;45.586;10.264;2023-11-21T00:58:33;30.73;;;25.27;;
79399;SDS011;68856;45.586;10.264;2023-11-21T01:01:00;32.58;;;25.10;;
79399;SDS011;68856;45.586;10.264;2023-11-21T01:03:27;35.22;;;24.17;;
79399;SDS011;68856;45.586;10.264;2023-11-21T01:05:54;34.00;;;23.83;;
79399;SDS011;68856;45.586;10.264;2023-11-21T01:08:20;31.88;;;23.42;;
79399;SDS011;68856;45.586;10.264;2023-11-21T01:10:46;33.63;;;23.13;;
79399;SDS011;68856;45.586;10.264;2023-11-21T01:13:13;33.75;;;22.00;;
79399;SDS011;68856;45.586;10.264;2023-11-21T01:15:40;28.75;;;22.17;;
79399;SDS011;68856;45.586;10.264;2023-11-21T01:18:07;30.98;;;22.95;;
79399;SDS011;68856;45.586;10.264;2023-11-21T01:20:33;31.45;;;23.92;;
79399;SDS011;68856;45.586;10.264;2023-11-21T01:23:00;33.33;;;24.55;;
79399;SDS011;68856;45.586;10.264;2023-11-21T01:25:26;31.38;;;23.52;;
79399;SDS011;68856;45.586;10.264;2023-11-21T01:27:52;32.40;;;23.27;;
79399;SDS011;68856;45.586;10.264;2023-11-21T01:30:19;30.88;;;22.02;;
79399;SDS011;68856;45.586;10.264;2023-11-21T01:32:45;29.33;;;21.58;;
79399;SDS011;68856;45.586;10.264;2023-11-21T01:35:11;31.90;;;22.77;;
79399;SDS011;68856;45.586;10.264;2023-11-21T01:37:38;27.75;;;20.52;;
79399;SDS011;68856;45.586;10.264;2023-11-21T01:40:04;36.28;;;23.08;;
79399;SDS011;68856;45.586;10.264;2023-11-21T01:42:35;31.52;;;21.27;;
79399;SDS011;68856;45.586;10.264;2023-11-21T01:45:01;28.90;;;21.55;;
79399;SDS011;68856;45.586;10.264;2023-11-21T01:47:30;27.25;;;20.58;;
79399;SDS011;68856;45.586;10.264;2023-11-21T01:49:57;25.63;;;19.33;;
79399;SDS011;68856;45.586;10.264;2023-11-21T01:52:24;25.40;;;19.33;;
79399;SDS011;68856;45.586;10.264;2023-11-21T01:54:51;24.88;;;18.58;;
79399;SDS011;68856;45.586;10.264;2023-11-21T01:57:18;24.55;;;18.90;;
79399;SDS011;68856;45.586;10.264;2023-11-21T01:59:45;27.05;;;21.05;;
79399;SDS011;68856;45.586;10.264;2023-11-21T02:02:14;26.45;;;19.98;;
79399;SDS011;68856;45.586;10.264;2023-11-21T02:04:41;27.25;;;19.85;;
79399;SDS011;68856;45.586;10.264;2023-11-21T02:07:08;27.20;;;19.08;;
79399;SDS011;68856;45.586;10.264;2023-11-21T02:09:35;24.77;;;19.20;;
79399;SDS011;68856;45.586;10.264;2023-11-21T02:12:03;28.00;;;20.88;;
79399;SDS011;68856;45.586;10.264;2023-11-21T02:14:30;28.75;;;20.80;;
79399;SDS011;68856;45.586;10.264;2023-11-21T02:16:57;29.98;;;21.70;;
79399;SDS011;68856;45.586;10.264;2023-11-21T02:19:23;31.98;;;21.88;;
79399;SDS011;68856;45.586;10.264;2023-11-21T02:21:53;27.13;;;20.52;;
79399;SDS011;68856;45.586;10.264;2023-11-21T02:24:20;33.17;;;23.05;;
79399;SDS011;68856;45.586;10.264;2023-11-21T02:26:50;31.90;;;22.30;;
79399;SDS011;68856;45.586;10.264;2023-11-21T02:29:17;29.17;;;22.05;;
79399;SDS011;68856;45.586;10.264;2023-11-21T02:31:47;32.10;;;22.90;;
79399;SDS011;68856;45.586;10.264;2023-11-21T02:34:16;29.80;;;21.73;;
79399;SDS011;68856;45.586;10.264;2023-11-21T02:36:46;29.52;;;22.95;;
79399;SDS011;68856;45.586;10.264;2023-11-21T02:39:16;29.35;;;22.02;;
79399;SDS011;68856;45.586;10.264;2023-11-21T02:41:43;28.75;;;21.45;;
79399;SDS011;68856;45.586;10.264;2023-11-21T02:44:09;30.83;;;22.13;;
79399;SDS011;68856;45.586;10.264;2023-11-21T02:46:36;31.88;;;22.88;;
79399;SDS011;68856;45.586;10.264;2023-11-21T02:49:04;27.83;;;22.98;;
79399;SDS011;68856;45.586;10.264;2023-11-21T02:51:35;32.80;;;22.75;;
79399;SDS011;68856;45.586;10.264;2023-11-21T02:54:03;26.25;;;20.50;;
79399;SDS011;68856;45.586;10.264;2023-11-21T02:56:33;30.67;;;22.40;;
79399;SDS011;68856;45.586;10.264;2023-11-21T02:58:59;28.30;;;21.23;;
79399;SDS011;68856;45.586;10.264;2023-11-21T03:01:26;30.08;;;21.58;;
79399;SDS011;68856;45.586;10.264;2023-11-21T03:03:53;30.05;;;22.27;;
79399;SDS011;68856;45.586;10.264;2023-11-21T03:06:20;29.05;;;21.52;;
79399;SDS011;68856;45.586;10.264;2023-11-21T03:08:47;32.28;;;21.45;;
79399;SDS011;68856;45.586;10.264;2023-11-21T03:11:14;30.33;;;22.02;;
79399;SDS011;68856;45.586;10.264;2023-11-21T03:13:40;30.52;;;21.63;;
79399;SDS011;68856;45.586;10.264;2023-11-21T03:16:10;30.65;;;21.80;;
79399;SDS011;68856;45.586;10.264;2023-11-21T03:18:37;27.00;;;20.92;;
79399;SDS011;68856;45.586;10.264;2023-11-21T03:21:04;30.38;;;22.15;;
79399;SDS011;68856;45.586;10.264;2023-11-21T03:23:31;30.27;;;21.52;;
79399;SDS011;68856;45.586;10.264;2023-11-21T03:25:57;28.77;;;22.17;;
79399;SDS011;68856;45.586;10.264;2023-11-21T03:28:25;28.40;;;20.10;;
79399;SDS011;68856;45.586;10.264;2023-11-21T03:30:52;29.05;;;22.33;;
79399;SDS011;68856;45.586;10.264;2023-11-21T03:33:19;30.30;;;22.35;;
79399;SDS011;68856;45.586;10.264;2023-11-21T03:35:45;28.92;;;21.20;;
79399;SDS011;68856;45.586;10.264;2023-11-21T03:38:12;28.17;;;20.17;;
79399;SDS011;68856;45.586;10.264;2023-11-21T03:40:38;26.55;;;19.90;;
79399;SDS011;68856;45.586;10.264;2023-11-21T03:43:05;27.40;;;19.95;;
79399;SDS011;68856;45.586;10.264;2023-11-21T03:45:31;27.20;;;20.35;;
79399;SDS011;68856;45.586;10.264;2023-11-21T03:47:57;28.58;;;20.13;;
79399;SDS011;68856;45.586;10.264;2023-11-21T03:50:26;30.40;;;21.88;;
79399;SDS011;68856;45.586;10.264;2023-11-21T03:52:53;29.70;;;21.75;;
79399;SDS011;68856;45.586;10.264;2023-11-21T03:55:20;33.42;;;21.42;;
79399;SDS011;68856;45.586;10.264;2023-11-21T03:57:46;28.27;;;21.10;;
79399;SDS011;68856;45.586;10.264;2023-11-21T04:00:12;32.15;;;21.75;;
79399;SDS011;68856;45.586;10.264;2023-11-21T04:02:39;29.02;;;21.30;;
79399;SDS011;68856;45.586;10.264;2023-11-21T04:05:05;33.03;;;21.77;;
79399;SDS011;68856;45.586;10.264;2023-11-21T04:07:32;28.20;;;21.13;;
79399;SDS011;68856;45.586;10.264;2023-11-21T04:09:59;29.92;;;20.83;;
79399;SDS011;68856;45.586;10.264;2023-11-21T04:12:25;29.25;;;20.92;;
79399;SDS011;68856;45.586;10.264;2023-11-21T04:14:51;28.77;;;21.15;;
79399;SDS011;68856;45.586;10.264;2023-11-21T04:17:18;29.08;;;21.27;;
79399;SDS011;68856;45.586;10.264;2023-11-21T04:19:45;26.30;;;19.33;;
79399;SDS011;68856;45.586;10.264;2023-11-21T04:22:11;29.55;;;21.02;;
79399;SDS011;68856;45.586;10.264;2023-11-21T04:24:38;31.67;;;21.20;;
79399;SDS011;68856;45.586;10.264;2023-11-21T04:27:04;29.20;;;20.80;;
79399;SDS011;68856;45.586;10.264;2023-11-21T04:29:30;28.70;;;20.50;;
79399;SDS011;68856;45.586;10.264;2023-11-21T04:31:57;31.83;;;20.67;;
79399;SDS011;68856;45.586;10.264;2023-11-21T04:34:23;28.23;;;21.27;;
79399;SDS011;68856;45.586;10.264;2023-11-21T04:36:49;29.50;;;21.40;;
79399;SDS011;68856;45.586;10.264;2023-11-21T04:39:16;30.60;;;22.48;;
79399;SDS011;68856;45.586;10.264;2023-11-21T04:41:42;29.25;;;22.23;;
79399;SDS011;68856;45.586;10.264;2023-11-21T04:44:08;29.05;;;20.08;;
79399;SDS011;68856;45.586;10.264;2023-11-21T04:46:35;28.70;;;19.15;;
79399;SDS011;68856;45.586;10.264;2023-11-21T04:49:01;28.88;;;20.95;;
79399;SDS011;68856;45.586;10.264;2023-11-21T04:51:27;29.08;;;20.90;;
79399;SDS011;68856;45.586;10.264;2023-11-21T04:53:54;29.17;;;21.05;;
79399;SDS011;68856;45.586;10.264;2023-11-21T04:56:20;33.80;;;20.80;;
79399;SDS011;68856;45.586;10.264;2023-11-21T04:58:46;33.88;;;20.88;;
79399;SDS011;68856;45.586;10.264;2023-11-21T05:01:12;30.65;;;20.70;;
79399;SDS011;68856;45.586;10.264;2023-11-21T05:03:39;29.42;;;20.10;;
79399;SDS011;68856;45.586;10.264;2023-11-21T05:06:05;29.70;;;20.05;;
79399;SDS011;68856;45.586;10.264;2023-11-21T05:08:32;29.33;;;20.25;;
79399;SDS011;68856;45.586;10.264;2023-11-21T05:10:58;27.88;;;20.15;;
79399;SDS011;68856;45.586;10.264;2023-11-21T05:13:24;28.17;;;21.42;;
79399;SDS011;68856;45.586;10.264;2023-11-21T05:15:53;27.90;;;21.50;;
79399;SDS011;68856;45.586;10.264;2023-11-21T05:18:22;34.47;;;21.60;;
79399;SDS011;68856;45.586;10.264;2023-11-21T05:20:48;26.85;;;20.15;;
79399;SDS011;68856;45.586;10.264;2023-11-21T05:23:15;31.13;;;21.98;;
79399;SDS011;68856;45.586;10.264;2023-11-21T05:25:41;28.38;;;20.85;;
79399;SDS011;68856;45.586;10.264;2023-11-21T05:28:07;29.13;;;19.17;;
79399;SDS011;68856;45.586;10.264;2023-11-21T05:30:34;28.98;;;20.42;;
79399;SDS011;68856;45.586;10.264;2023-11-21T05:33:00;26.75;;;20.00;;
79399;SDS011;68856;45.586;10.264;2023-11-21T05:35:26;29.55;;;20.02;;
79399;SDS011;68856;45.586;10.264;2023-11-21T05:37:52;28.48;;;19.55;;
79399;SDS011;68856;45.586;10.264;2023-11-21T05:40:19;26.90;;;19.50;;
79399;SDS011;68856;45.586;10.264;2023-11-21T05:42:47;29.75;;;21.38;;
79399;SDS011;68856;45.586;10.264;2023-11-21T05:45:16;27.60;;;20.55;;
79399;SDS011;68856;45.586;10.264;2023-11-21T05:47:44;33.37;;;22.50;;
79399;SDS011;68856;45.586;10.264;2023-11-21T05:50:11;39.20;;;23.98;;
79399;SDS011;68856;45.586;10.264;2023-11-21T05:52:43;28.52;;;20.60;;
79399;SDS011;68856;45.586;10.264;2023-11-21T05:55:10;29.88;;;20.08;;
79399;SDS011;68856;45.586;10.264;2023-11-21T05:57:38;33.60;;;20.77;;
79399;SDS011;68856;45.586;10.264;2023-11-21T06:00:07;29.85;;;20.35;;
79399;SDS011;68856;45.586;10.264;2023-11-21T06:02:46;29.48;;;20.63;;
79399;SDS011;68856;45.586;10.264;2023-11-21T06:05:16;31.10;;;21.27;;
79399;SDS011;68856;45.586;10.264;2023-11-21T06:07:43;29.42;;;21.02;;
79399;SDS011;68856;45.586;10.264;2023-11-21T06:10:10;30.95;;;21.75;;
79399;SDS011;68856;45.586;10.264;2023-11-21T06:12:39;29.85;;;20.85;;
79399;SDS011;68856;45.586;10.264;2023-11-21T06:15:08;33.72;;;20.52;;
79399;SDS011;68856;45.586;10.264;2023-11-21T06:17:38;30.20;;;19.83;;
79399;SDS011;68856;45.586;10.264;2023-11-21T06:20:06;34.42;;;20.52;;
79399;SDS011;68856;45.586;10.264;2023-11-21T06:22:39;30.90;;;20.20;;
79399;SDS011;68856;45.586;10.264;2023-11-21T06:25:09;32.33;;;21.33;;
79399;SDS011;68856;45.586;10.264;2023-11-21T06:27:39;34.28;;;22.58;;
79399;SDS011;68856;45.586;10.264;2023-11-21T06:30:07;36.10;;;22.63;;
79399;SDS011;68856;45.586;10.264;2023-11-21T06:32:35;30.25;;;20.48;;
79399;SDS011;68856;45.586;10.264;2023-11-21T06:35:02;30.73;;;21.52;;
79399;SDS011;68856;45.586;10.264;2023-11-21T06:37:29;33.13;;;21.73;;
79399;SDS011;68856;45.586;10.264;2023-11-21T06:39:57;34.10;;;23.25;;
79399;SDS011;68856;45.586;10.264;2023-11-21T06:42:24;35.80;;;22.75;;
79399;SDS011;68856;45.586;10.264;2023-11-21T06:44:51;38.70;;;26.85;;
79399;SDS011;68856;45.586;10.264;2023-11-21T06:47:24;32.72;;;23.33;;
79399;SDS011;68856;45.586;10.264;2023-11-21T06:49:51;35.13;;;23.10;;
79399;SDS011;68856;45.586;10.264;2023-11-21T06:52:18;34.30;;;22.08;;
79399;SDS011;68856;45.586;10.264;2023-11-21T06:54:45;36.20;;;22.55;;
79399;SDS011;68856;45.586;10.264;2023-11-21T06:57:12;32.17;;;21.85;;
79399;SDS011;68856;45.586;10.264;2023-11-21T06:59:39;32.10;;;21.23;;
79399;SDS011;68856;45.586;10.264;2023-11-21T07:02:05;34.35;;;20.48;;
79399;SDS011;68856;45.586;10.264;2023-11-21T07:04:32;33.42;;;22.05;;
79399;SDS011;68856;45.586;10.264;2023-11-21T07:06:59;37.20;;;22.35;;
79399;SDS011;68856;45.586;10.264;2023-11-21T07:09:25;33.50;;;22.33;;
79399;SDS011;68856;45.586;10.264;2023-11-21T07:11:52;34.38;;;21.52;;
79399;SDS011;68856;45.586;10.264;2023-11-21T07:14:19;33.08;;;22.25;;
79399;SDS011;68856;45.586;10.264;2023-11-21T07:16:46;30.70;;;21.10;;
79399;SDS011;68856;45.586;10.264;2023-11-21T07:19:13;30.20;;;20.25;;
79399;SDS011;68856;45.586;10.264;2023-11-21T07:21:39;37.47;;;22.85;;
79399;SDS011;68856;45.586;10.264;2023-11-21T07:24:06;34.63;;;21.58;;
79399;SDS011;68856;45.586;10.264;2023-11-21T07:26:34;36.58;;;22.90;;
79399;SDS011;68856;45.586;10.264;2023-11-21T07:29:01;33.60;;;21.92;;
79399;SDS011;68856;45.586;10.264;2023-11-21T07:31:28;35.72;;;22.58;;
79399;SDS011;68856;45.586;10.264;2023-11-21T07:33:55;34.55;;;21.55;;
79399;SDS011;68856;45.586;10.264;2023-11-21T07:36:24;32.15;;;21.95;;
79399;SDS011;68856;45.586;10.264;2023-11-21T07:38:50;31.48;;;21.88;;
79399;SDS011;68856;45.586;10.264;2023-11-21T07:41:17;38.70;;;23.38;;
79399;SDS011;68856;45.586;10.264;2023-11-21T07:43:44;37.78;;;23.00;;
79399;SDS011;68856;45.586;10.264;2023-11-21T07:46:11;36.63;;;23.13;;
79399;SDS011;68856;45.586;10.264;2023-11-21T07:48:38;40.55;;;25.48;;
79399;SDS011;68856;45.586;10.264;2023-11-21T07:51:07;35.38;;;23.73;;
79399;SDS011;68856;45.586;10.264;2023-11-21T07:53:34;39.30;;;26.00;;
79399;SDS011;68856;45.586;10.264;2023-11-21T07:56:08;36.55;;;25.58;;
79399;SDS011;68856;45.586;10.264;2023-11-21T07:58:35;36.80;;;23.88;;
79399;SDS011;68856;45.586;10.264;2023-11-21T08:01:02;35.28;;;24.05;;
79399;SDS011;68856;45.586;10.264;2023-11-21T08:03:29;39.55;;;26.17;;
79399;SDS011;68856;45.586;10.264;2023-11-21T08:05:59;36.75;;;26.23;;
79399;SDS011;68856;45.586;10.264;2023-11-21T08:08:25;36.13;;;23.25;;
79399;SDS011;68856;45.586;10.264;2023-11-21T08:10:58;35.10;;;23.65;;
79399;SDS011;68856;45.586;10.264;2023-11-21T08:13:27;34.80;;;23.52;;
79399;SDS011;68856;45.586;10.264;2023-11-21T08:15:55;32.08;;;23.13;;
79399;SDS011;68856;45.586;10.264;2023-11-21T08:18:26;32.83;;;22.17;;
79399;SDS011;68856;45.586;10.264;2023-11-21T08:20:54;34.85;;;23.60;;
79399;SDS011;68856;45.586;10.264;2023-11-21T08:23:21;33.22;;;23.85;;
79399;SDS011;68856;45.586;10.264;2023-11-21T08:25:51;35.80;;;22.40;;
79399;SDS011;68856;45.586;10.264;2023-11-21T08:28:18;34.10;;;22.88;;
79399;SDS011;68856;45.586;10.264;2023-11-21T08:30:45;32.28;;;23.38;;
79399;SDS011;68856;45.586;10.264;2023-11-21T08:33:12;33.92;;;23.30;;
79399;SDS011;68856;45.586;10.264;2023-11-21T08:35:38;34.35;;;24.08;;
79399;SDS011;68856;45.586;10.264;2023-11-21T08:38:04;36.38;;;26.08;;
79399;SDS011;68856;45.586;10.264;2023-11-21T08:40:31;38.13;;;24.77;;
79399;SDS011;68856;45.586;10.264;2023-11-21T08:42:57;33.25;;;23.80;;
79399;SDS011;68856;45.586;10.264;2023-11-21T08:45:24;33.42;;;24.13;;
79399;SDS011;68856;45.586;10.264;2023-11-21T08:47:53;35.65;;;23.75;;
79399;SDS011;68856;45.586;10.264;2023-11-21T08:50:20;31.00;;;22.95;;
79399;SDS011;68856;45.586;10.264;2023-11-21T08:52:46;33.95;;;23.30;;
79399;SDS011;68856;45.586;10.264;2023-11-21T08:55:12;30.85;;;21.25;;
79399;SDS011;68856;45.586;10.264;2023-11-21T08:57:39;34.53;;;21.65;;
79399;SDS011;68856;45.586;10.264;2023-11-21T09:00:07;32.42;;;21.25;;
79399;SDS011;68856;45.586;10.264;2023-11-21T09:02:37;29.70;;;21.33;;
79399;SDS011;68856;45.586;10.264;2023-11-21T09:05:07;30.25;;;21.63;;
79399;SDS011;68856;45.586;10.264;2023-11-21T09:07:38;30.73;;;21.55;;
79399;SDS011;68856;45.586;10.264;2023-11-21T09:10:06;32.25;;;22.55;;
79399;SDS011;68856;45.586;10.264;2023-11-21T09:12:34;30.95;;;22.02;;
79399;SDS011;68856;45.586;10.264;2023-11-21T09:15:03;32.28;;;22.90;;
79399;SDS011;68856;45.586;10.264;2023-11-21T09:17:30;32.22;;;21.35;;
79399;SDS011;68856;45.586;10.264;2023-11-21T09:19:57;34.60;;;23.10;;
79399;SDS011;68856;45.586;10.264;2023-11-21T09:22:23;30.92;;;22.95;;
79399;SDS011;68856;45.586;10.264;2023-11-21T09:24:50;31.65;;;22.20;;
79399;SDS011;68856;45.586;10.264;2023-11-21T09:27:17;28.77;;;21.88;;
79399;SDS011;68856;45.586;10.264;2023-11-21T09:29:44;33.15;;;22.92;;
79399;SDS011;68856;45.586;10.264;2023-11-21T09:32:12;32.72;;;22.10;;
79399;SDS011;68856;45.586;10.264;2023-11-21T09:34:43;31.85;;;22.30;;
79399;SDS011;68856;45.586;10.264;2023-11-21T09:37:10;31.83;;;22.17;;
79399;SDS011;68856;45.586;10.264;2023-11-21T09:39:36;37.08;;;24.92;;
79399;SDS011;68856;45.586;10.264;2023-11-21T09:42:04;30.38;;;22.27;;
79399;SDS011;68856;45.586;10.264;2023-11-21T09:44:36;30.13;;;21.88;;
79399;SDS011;68856;45.586;10.264;2023-11-21T09:47:20;34.95;;;22.17;;
79399;SDS011;68856;45.586;10.264;2023-11-21T09:49:47;35.42;;;23.05;;
79399;SDS011;68856;45.586;10.264;2023-11-21T09:52:18;32.65;;;23.35;;
79399;SDS011;68856;45.586;10.264;2023-11-21T09:54:52;36.22;;;21.85;;
79399;SDS011;68856;45.586;10.264;2023-11-21T09:57:19;30.27;;;21.33;;
79399;SDS011;68856;45.586;10.264;2023-11-21T09:59:50;33.43;;;21.07;;
79399;SDS011;68856;45.586;10.264;2023-11-21T10:02:27;32.08;;;21.38;;
79399;SDS011;68856;45.586;10.264;2023-11-21T10:04:55;31.25;;;22.80;;
79399;SDS011;68856;45.586;10.264;2023-11-21T10:07:22;31.20;;;21.52;;
79399;SDS011;68856;45.586;10.264;2023-11-21T10:09:49;31.95;;;20.70;;
79399;SDS011;68856;45.586;10.264;2023-11-21T10:12:18;36.15;;;21.70;;
79399;SDS011;68856;45.586;10.264;2023-11-21T10:14:47;29.75;;;20.90;;
79399;SDS011;68856;45.586;10.264;2023-11-21T10:19:46;39.40;;;23.95;;
79399;SDS011;68856;45.586;10.264;2023-11-21T10:22:13;33.55;;;21.55;;
79399;SDS011;68856;45.586;10.264;2023-11-21T10:24:40;33.97;;;21.80;;
79399;SDS011;68856;45.586;10.264;2023-11-21T10:27:08;37.42;;;26.85;;
79399;SDS011;68856;45.586;10.264;2023-11-21T10:29:34;35.25;;;22.58;;
79399;SDS011;68856;45.586;10.264;2023-11-21T10:32:04;32.35;;;21.73;;
79399;SDS011;68856;45.586;10.264;2023-11-21T10:34:30;32.83;;;21.40;;
79399;SDS011;68856;45.586;10.264;2023-11-21T10:36:58;30.70;;;20.85;;
79399;SDS011;68856;45.586;10.264;2023-11-21T10:39:35;32.53;;;21.00;;
79399;SDS011;68856;45.586;10.264;2023-11-21T10:42:02;32.33;;;20.83;;
79399;SDS011;68856;45.586;10.264;2023-11-21T10:44:28;32.85;;;20.10;;
79399;SDS011;68856;45.586;10.264;2023-11-21T10:46:54;31.15;;;21.00;;
79399;SDS011;68856;45.586;10.264;2023-11-21T10:49:24;33.45;;;21.38;;
79399;SDS011;68856;45.586;10.264;2023-11-21T10:54:21;29.48;;;21.10;;
79399;SDS011;68856;45.586;10.264;2023-11-21T10:56:49;31.65;;;20.38;;
79399;SDS011;68856;45.586;10.264;2023-11-21T10:59:18;30.42;;;21.08;;
79399;SDS011;68856;45.586;10.264;2023-11-21T11:01:49;31.05;;;21.50;;
79399;SDS011;68856;45.586;10.264;2023-11-21T11:04:18;31.55;;;22.15;;
79399;SDS011;68856;45.586;10.264;2023-11-21T11:07:05;30.88;;;20.23;;
79399;SDS011;68856;45.586;10.264;2023-11-21T11:09:34;31.30;;;20.80;;
79399;SDS011;68856;45.586;10.264;2023-11-21T11:12:01;32.55;;;22.42;;
79399;SDS011;68856;45.586;10.264;2023-11-21T11:14:29;31.70;;;22.83;;
79399;SDS011;68856;45.586;10.264;2023-11-21T11:16:57;33.22;;;22.23;;
79399;SDS011;68856;45.586;10.264;2023-11-21T11:19:25;31.00;;;22.92;;
79399;SDS011;68856;45.586;10.264;2023-11-21T11:24:56;31.75;;;21.48;;
79399;SDS011;68856;45.586;10.264;2023-11-21T11:27:52;30.80;;;21.98;;
79399;SDS011;68856;45.586;10.264;2023-11-21T11:33:07;34.78;;;20.92;;
79399;SDS011;68856;45.586;10.264;2023-11-21T11:38:32;31.35;;;20.88;;
79399;SDS011;68856;45.586;10.264;2023-11-21T11:41:03;30.95;;;20.52;;
79399;SDS011;68856;45.586;10.264;2023-11-21T11:43:32;27.02;;;20.35;;
79399;SDS011;68856;45.586;10.264;2023-11-21T11:46:05;29.20;;;21.05;;
79399;SDS011;68856;45.586;10.264;2023-11-21T11:48:34;35.75;;;23.17;;
79399;SDS011;68856;45.586;10.264;2023-11-21T11:53:42;33.58;;;22.77;;
79399;SDS011;68856;45.586;10.264;2023-11-21T11:58:59;31.98;;;21.67;;
79399;SDS011;68856;45.586;10.264;2023-11-21T12:07:02;32.17;;;23.00;;
79399;SDS011;68856;45.586;10.264;2023-11-21T12:09:30;36.38;;;22.67;;
79399;SDS011;68856;45.586;10.264;2023-11-21T12:11:57;35.95;;;24.00;;
79399;SDS011;68856;45.586;10.264;2023-11-21T12:14:23;34.10;;;24.10;;
79399;SDS011;68856;45.586;10.264;2023-11-21T12:16:50;35.17;;;22.95;;
79399;SDS011;68856;45.586;10.264;2023-11-21T12:19:17;34.85;;;24.85;;
79399;SDS011;68856;45.586;10.264;2023-11-21T12:21:43;36.20;;;24.40;;
79399;SDS011;68856;45.586;10.264;2023-11-21T12:24:10;36.90;;;25.00;;
79399;SDS011;68856;45.586;10.264;2023-11-21T12:26:39;35.88;;;25.35;;
79399;SDS011;68856;45.586;10.264;2023-11-21T12:29:05;35.40;;;25.00;;
79399;SDS011;68856;45.586;10.264;2023-11-21T12:31:33;39.13;;;25.08;;
79399;SDS011;68856;45.586;10.264;2023-11-21T12:34:00;33.53;;;23.67;;
79399;SDS011;68856;45.586;10.264;2023-11-21T12:36:26;38.00;;;25.25;;
79399;SDS011;68856;45.586;10.264;2023-11-21T12:38:55;34.03;;;24.77;;
79399;SDS011;68856;45.586;10.264;2023-11-21T12:41:21;32.67;;;24.30;;
79399;SDS011;68856;45.586;10.264;2023-11-21T12:43:48;34.83;;;24.40;;
79399;SDS011;68856;45.586;10.264;2023-11-21T12:46:14;33.47;;;23.83;;
79399;SDS011;68856;45.586;10.264;2023-11-21T12:48:42;37.50;;;25.33;;
79399;SDS011;68856;45.586;10.264;2023-11-21T12:53:43;38.53;;;25.42;;
79399;SDS011;68856;45.586;10.264;2023-11-21T12:56:12;40.78;;;26.02;;
79399;SDS011;68856;45.586;10.264;2023-11-21T12:58:43;36.72;;;27.45;;
79399;SDS011;68856;45.586;10.264;2023-11-21T13:01:12;38.03;;;26.88;;
79399;SDS011;68856;45.586;10.264;2023-11-21T13:03:43;37.65;;;26.45;;
79399;SDS011;68856;45.586;10.264;2023-11-21T13:06:13;42.50;;;28.17;;
79399;SDS011;68856;45.586;10.264;2023-11-21T13:08:41;39.42;;;29.17;;
79399;SDS011;68856;45.586;10.264;2023-11-21T13:11:09;40.58;;;28.77;;
79399;SDS011;68856;45.586;10.264;2023-11-21T13:13:39;40.13;;;29.73;;
79399;SDS011;68856;45.586;10.264;2023-11-21T13:16:08;39.30;;;27.80;;
79399;SDS011;68856;45.586;10.264;2023-11-21T13:18:35;42.78;;;27.88;;
79399;SDS011;68856;45.586;10.264;2023-11-21T13:21:03;40.53;;;25.65;;
79399;SDS011;68856;45.586;10.264;2023-11-21T13:23:40;38.85;;;26.65;;
79399;SDS011;68856;45.586;10.264;2023-11-21T13:26:07;41.85;;;27.50;;
79399;SDS011;68856;45.586;10.264;2023-11-21T13:28:34;41.25;;;28.50;;
79399;SDS011;68856;45.586;10.264;2023-11-21T13:31:02;41.35;;;28.65;;
79399;SDS011;68856;45.586;10.264;2023-11-21T13:33:49;41.05;;;28.85;;
79399;SDS011;68856;45.586;10.264;2023-11-21T13:36:24;41.40;;;29.92;;
79399;SDS011;68856;45.586;10.264;2023-11-21T13:38:55;45.63;;;29.15;;
79399;SDS011;68856;45.586;10.264;2023-11-21T13:41:23;44.58;;;27.73;;
79399;SDS011;68856;45.586;10.264;2023-11-21T13:43:55;42.22;;;27.58;;
79399;SDS011;68856;45.586;10.264;2023-11-21T13:46:40;37.50;;;28.13;;
79399;SDS011;68856;45.586;10.264;2023-11-21T13:49:07;45.92;;;31.30;;
79399;SDS011;68856;45.586;10.264;2023-11-21T13:51:35;41.30;;;28.67;;
79399;SDS011;68856;45.586;10.264;2023-11-21T13:54:09;36.25;;;28.13;;
79399;SDS011;68856;45.586;10.264;2023-11-21T13:56:36;43.88;;;30.17;;
79399;SDS011;68856;45.586;10.264;2023-11-21T13:59:03;49.25;;;34.03;;
79399;SDS011;68856;45.586;10.264;2023-11-21T14:01:41;47.00;;;34.60;;
79399;SDS011;68856;45.586;10.264;2023-11-21T14:04:25;45.70;;;32.53;;
79399;SDS011;68856;45.586;10.264;2023-11-21T14:06:57;42.13;;;29.98;;
79399;SDS011;68856;45.586;10.264;2023-11-21T14:09:26;41.00;;;28.95;;
79399;SDS011;68856;45.586;10.264;2023-11-21T14:12:00;36.88;;;27.48;;
79399;SDS011;68856;45.586;10.264;2023-11-21T14:16:57;36.15;;;25.73;;
79399;SDS011;68856;45.586;10.264;2023-11-21T14:19:23;37.92;;;26.98;;
79399;SDS011;68856;45.586;10.264;2023-11-21T14:21:57;43.65;;;31.00;;
79399;SDS011;68856;45.586;10.264;2023-11-21T14:24:23;36.30;;;26.40;;
79399;SDS011;68856;45.586;10.264;2023-11-21T14:26:50;42.97;;;32.22;;
79399;SDS011;68856;45.586;10.264;2023-11-21T14:29:17;40.92;;;29.30;;
79399;SDS011;68856;45.586;10.264;2023-11-21T14:31:48;42.85;;;29.83;;
79399;SDS011;68856;45.586;10.264;2023-11-21T14:34:21;40.00;;;30.17;;
79399;SDS011;68856;45.586;10.264;2023-11-21T14:36:48;42.45;;;29.02;;
79399;SDS011;68856;45.586;10.264;2023-11-21T14:39:15;50.53;;;36.47;;
79399;SDS011;68856;45.586;10.264;2023-11-21T14:41:48;45.60;;;32.65;;
79399;SDS011;68856;45.586;10.264;2023-11-21T14:44:15;41.67;;;29.70;;